sensor_id;sensor_type;location;lat;lon;timestamp;P1;durP1;ratioP1;P2;durP2;ratioP2
46781;SDS011;32541;46.298;11.506;2022-07-24T00:01:05;5.15;;;4.30;;
46781;SDS011;32541;46.298;11.506;2022-07-24T00:03:30;5.13;;;4.15;;
46781;SDS011;32541;46.298;11.506;2022-07-24T00:05:56;4.20;;;3.80;;
46781;SDS011;32541;46.298;11.506;2022-07-24T00:08:21;4.40;;;4.00;;
46781;SDS011;32541;46.298;11.506;2022-07-24T00:10:47;5.57;;;4.35;;
46781;SDS011;32541;46.298;11.506;2022-07-24T00:13:12;4.20;;;3.80;;
46781;SDS011;32541;46.298;11.506;2022-07-24T00:15:38;5.72;;;3.95;;
46781;SDS011;32541;46.298;11.506;2022-07-24T00:18:03;4.28;;;3.88;;
46781;SDS011;32541;46.298;11.506;2022-07-24T00:20:28;4.10;;;3.50;;
46781;SDS011;32541;46.298;11.506;2022-07-24T00:22:54;4.43;;;3.60;;
46781;SDS011;32541;46.298;11.506;2022-07-24T00:25:19;3.80;;;3.40;;
46781;SDS011;32541;46.298;11.506;2022-07-24T00:27:45;5.88;;;4.18;;
46781;SDS011;32541;46.298;11.506;2022-07-24T00:30:10;5.28;;;3.80;;
46781;SDS011;32541;46.298;11.506;2022-07-24T00:32:36;4.60;;;4.07;;
46781;SDS011;32541;46.298;11.506;2022-07-24T00:35:01;5.43;;;4.38;;
46781;SDS011;32541;46.298;11.506;2022-07-24T00:37:27;3.80;;;2.85;;
46781;SDS011;32541;46.298;11.506;2022-07-24T00:39:52;4.13;;;3.55;;
46781;SDS011;32541;46.298;11.506;2022-07-24T00:42:18;5.05;;;3.50;;
46781;SDS011;32541;46.298;11.506;2022-07-24T00:44:43;3.28;;;2.97;;
46781;SDS011;32541;46.298;11.506;2022-07-24T00:47:08;3.78;;;3.22;;
46781;SDS011;32541;46.298;11.506;2022-07-24T00:49:34;3.50;;;2.88;;
46781;SDS011;32541;46.298;11.506;2022-07-24T00:51:59;3.60;;;3.25;;
46781;SDS011;32541;46.298;11.506;2022-07-24T00:54:25;4.50;;;3.60;;
46781;SDS011;32541;46.298;11.506;2022-07-24T00:56:51;3.58;;;3.28;;
46781;SDS011;32541;46.298;11.506;2022-07-24T00:59:18;3.92;;;3.53;;
46781;SDS011;32541;46.298;11.506;2022-07-24T01:01:44;5.68;;;3.95;;
46781;SDS011;32541;46.298;11.506;2022-07-24T01:04:10;4.72;;;3.80;;
46781;SDS011;32541;46.298;11.506;2022-07-24T01:06:39;5.15;;;3.85;;
46781;SDS011;32541;46.298;11.506;2022-07-24T01:09:06;6.55;;;3.80;;
46781;SDS011;32541;46.298;11.506;2022-07-24T01:11:32;4.38;;;3.58;;
46781;SDS011;32541;46.298;11.506;2022-07-24T01:13:57;5.32;;;3.38;;
46781;SDS011;32541;46.298;11.506;2022-07-24T01:16:23;3.97;;;3.58;;
46781;SDS011;32541;46.298;11.506;2022-07-24T01:18:49;4.80;;;4.22;;
46781;SDS011;32541;46.298;11.506;2022-07-24T01:21:14;4.15;;;3.45;;
46781;SDS011;32541;46.298;11.506;2022-07-24T01:23:40;3.42;;;3.13;;
46781;SDS011;32541;46.298;11.506;2022-07-24T01:26:06;4.85;;;3.08;;
46781;SDS011;32541;46.298;11.506;2022-07-24T01:28:32;4.07;;;3.53;;
46781;SDS011;32541;46.298;11.506;2022-07-24T01:30:57;4.13;;;3.53;;
46781;SDS011;32541;46.298;11.506;2022-07-24T01:33:23;4.95;;;4.20;;
46781;SDS011;32541;46.298;11.506;2022-07-24T01:35:49;4.25;;;3.40;;
46781;SDS011;32541;46.298;11.506;2022-07-24T01:38:16;4.57;;;3.28;;
46781;SDS011;32541;46.298;11.506;2022-07-24T01:40:41;3.97;;;3.47;;
46781;SDS011;32541;46.298;11.506;2022-07-24T01:43:07;6.00;;;3.53;;
46781;SDS011;32541;46.298;11.506;2022-07-24T01:45:32;4.15;;;3.40;;
46781;SDS011;32541;46.298;11.506;2022-07-24T01:47:58;5.28;;;3.40;;
46781;SDS011;32541;46.298;11.506;2022-07-24T01:50:23;5.10;;;3.78;;
46781;SDS011;32541;46.298;11.506;2022-07-24T01:52:49;4.38;;;2.97;;
46781;SDS011;32541;46.298;11.506;2022-07-24T01:55:15;3.70;;;3.30;;
46781;SDS011;32541;46.298;11.506;2022-07-24T01:57:40;4.40;;;3.22;;
46781;SDS011;32541;46.298;11.506;2022-07-24T02:00:06;4.03;;;3.60;;
46781;SDS011;32541;46.298;11.506;2022-07-24T02:02:37;4.57;;;3.67;;
46781;SDS011;32541;46.298;11.506;2022-07-24T02:05:03;4.38;;;3.60;;
46781;SDS011;32541;46.298;11.506;2022-07-24T02:07:29;5.97;;;3.70;;
46781;SDS011;32541;46.298;11.506;2022-07-24T02:09:55;5.28;;;3.75;;
46781;SDS011;32541;46.298;11.506;2022-07-24T02:12:20;4.00;;;3.53;;
46781;SDS011;32541;46.298;11.506;2022-07-24T02:14:45;4.43;;;3.75;;
46781;SDS011;32541;46.298;11.506;2022-07-24T02:17:11;4.25;;;3.50;;
46781;SDS011;32541;46.298;11.506;2022-07-24T02:19:36;4.63;;;3.47;;
46781;SDS011;32541;46.298;11.506;2022-07-24T02:22:02;4.60;;;3.60;;
46781;SDS011;32541;46.298;11.506;2022-07-24T02:24:27;5.53;;;4.45;;
46781;SDS011;32541;46.298;11.506;2022-07-24T02:26:53;6.32;;;4.10;;
46781;SDS011;32541;46.298;11.506;2022-07-24T02:29:18;6.10;;;4.22;;
46781;SDS011;32541;46.298;11.506;2022-07-24T02:31:43;5.07;;;3.50;;
46781;SDS011;32541;46.298;11.506;2022-07-24T02:34:09;3.80;;;2.97;;
46781;SDS011;32541;46.298;11.506;2022-07-24T02:36:35;4.80;;;3.60;;
46781;SDS011;32541;46.298;11.506;2022-07-24T02:39:00;4.05;;;3.55;;
46781;SDS011;32541;46.298;11.506;2022-07-24T02:41:26;6.13;;;3.67;;
46781;SDS011;32541;46.298;11.506;2022-07-24T02:43:51;7.50;;;3.55;;
46781;SDS011;32541;46.298;11.506;2022-07-24T02:46:16;4.22;;;3.40;;
46781;SDS011;32541;46.298;11.506;2022-07-24T02:48:42;3.92;;;3.50;;
46781;SDS011;32541;46.298;11.506;2022-07-24T02:51:07;4.35;;;3.47;;
46781;SDS011;32541;46.298;11.506;2022-07-24T02:53:33;4.28;;;3.42;;
46781;SDS011;32541;46.298;11.506;2022-07-24T02:55:58;4.85;;;3.78;;
46781;SDS011;32541;46.298;11.506;2022-07-24T02:58:23;4.25;;;3.40;;
46781;SDS011;32541;46.298;11.506;2022-07-24T03:00:49;4.20;;;3.80;;
46781;SDS011;32541;46.298;11.506;2022-07-24T03:03:14;5.38;;;3.92;;
46781;SDS011;32541;46.298;11.506;2022-07-24T03:05:40;5.18;;;3.47;;
46781;SDS011;32541;46.298;11.506;2022-07-24T03:08:05;6.30;;;3.83;;
46781;SDS011;32541;46.298;11.506;2022-07-24T03:10:31;6.00;;;3.65;;
46781;SDS011;32541;46.298;11.506;2022-07-24T03:12:56;3.78;;;3.35;;
46781;SDS011;32541;46.298;11.506;2022-07-24T03:15:21;4.43;;;3.50;;
46781;SDS011;32541;46.298;11.506;2022-07-24T03:17:50;7.18;;;4.00;;
46781;SDS011;32541;46.298;11.506;2022-07-24T03:20:18;4.93;;;3.80;;
46781;SDS011;32541;46.298;11.506;2022-07-24T03:22:44;5.05;;;3.90;;
46781;SDS011;32541;46.298;11.506;2022-07-24T03:25:10;4.82;;;3.90;;
46781;SDS011;32541;46.298;11.506;2022-07-24T03:27:36;5.22;;;4.18;;
46781;SDS011;32541;46.298;11.506;2022-07-24T03:30:02;6.45;;;4.15;;
46781;SDS011;32541;46.298;11.506;2022-07-24T03:32:29;4.45;;;3.80;;
46781;SDS011;32541;46.298;11.506;2022-07-24T03:34:54;4.32;;;3.78;;
46781;SDS011;32541;46.298;11.506;2022-07-24T03:37:19;5.75;;;3.92;;
46781;SDS011;32541;46.298;11.506;2022-07-24T03:39:45;8.73;;;4.18;;
46781;SDS011;32541;46.298;11.506;2022-07-24T03:42:10;4.25;;;3.65;;
46781;SDS011;32541;46.298;11.506;2022-07-24T03:44:35;4.32;;;3.63;;
46781;SDS011;32541;46.298;11.506;2022-07-24T03:47:01;5.38;;;3.63;;
46781;SDS011;32541;46.298;11.506;2022-07-24T03:49:26;4.32;;;3.60;;
46781;SDS011;32541;46.298;11.506;2022-07-24T03:51:52;5.53;;;3.60;;
46781;SDS011;32541;46.298;11.506;2022-07-24T03:54:17;6.55;;;3.55;;
46781;SDS011;32541;46.298;11.506;2022-07-24T03:56:42;6.47;;;3.28;;
46781;SDS011;32541;46.298;11.506;2022-07-24T03:59:08;4.40;;;3.60;;
46781;SDS011;32541;46.298;11.506;2022-07-24T04:01:33;6.63;;;3.63;;
46781;SDS011;32541;46.298;11.506;2022-07-24T04:03:58;4.03;;;3.63;;
46781;SDS011;32541;46.298;11.506;2022-07-24T04:06:29;3.85;;;3.45;;
46781;SDS011;32541;46.298;11.506;2022-07-24T04:08:56;6.38;;;3.85;;
46781;SDS011;32541;46.298;11.506;2022-07-24T04:11:21;6.85;;;4.10;;
46781;SDS011;32541;46.298;11.506;2022-07-24T04:13:47;4.88;;;3.97;;
46781;SDS011;32541;46.298;11.506;2022-07-24T04:16:12;5.57;;;4.10;;
46781;SDS011;32541;46.298;11.506;2022-07-24T04:18:37;4.55;;;3.75;;
46781;SDS011;32541;46.298;11.506;2022-07-24T04:21:03;4.38;;;3.60;;
46781;SDS011;32541;46.298;11.506;2022-07-24T04:23:28;3.97;;;3.20;;
46781;SDS011;32541;46.298;11.506;2022-07-24T04:25:54;5.60;;;3.45;;
46781;SDS011;32541;46.298;11.506;2022-07-24T04:28:19;4.45;;;3.78;;
46781;SDS011;32541;46.298;11.506;2022-07-24T04:30:44;5.07;;;3.95;;
46781;SDS011;32541;46.298;11.506;2022-07-24T04:33:10;3.70;;;3.20;;
46781;SDS011;32541;46.298;11.506;2022-07-24T04:35:35;4.93;;;3.50;;
46781;SDS011;32541;46.298;11.506;2022-07-24T04:38:00;4.93;;;3.40;;
46781;SDS011;32541;46.298;11.506;2022-07-24T04:40:26;3.88;;;3.47;;
46781;SDS011;32541;46.298;11.506;2022-07-24T04:42:51;4.80;;;3.88;;
46781;SDS011;32541;46.298;11.506;2022-07-24T04:45:17;4.40;;;3.92;;
46781;SDS011;32541;46.298;11.506;2022-07-24T04:47:42;6.75;;;4.00;;
46781;SDS011;32541;46.298;11.506;2022-07-24T04:50:08;4.88;;;3.53;;
46781;SDS011;32541;46.298;11.506;2022-07-24T04:52:33;5.05;;;3.60;;
46781;SDS011;32541;46.298;11.506;2022-07-24T04:54:59;4.68;;;3.85;;
46781;SDS011;32541;46.298;11.506;2022-07-24T04:57:24;5.22;;;4.20;;
46781;SDS011;32541;46.298;11.506;2022-07-24T04:59:49;6.60;;;4.22;;
46781;SDS011;32541;46.298;11.506;2022-07-24T05:02:15;3.72;;;3.33;;
46781;SDS011;32541;46.298;11.506;2022-07-24T05:04:41;4.55;;;4.03;;
46781;SDS011;32541;46.298;11.506;2022-07-24T05:07:06;4.20;;;3.60;;
46781;SDS011;32541;46.298;11.506;2022-07-24T05:09:32;4.22;;;3.83;;
46781;SDS011;32541;46.298;11.506;2022-07-24T05:11:57;5.03;;;3.45;;
46781;SDS011;32541;46.298;11.506;2022-07-24T05:14:22;4.93;;;3.90;;
46781;SDS011;32541;46.298;11.506;2022-07-24T05:16:48;4.15;;;3.58;;
46781;SDS011;32541;46.298;11.506;2022-07-24T05:19:13;4.72;;;4.18;;
46781;SDS011;32541;46.298;11.506;2022-07-24T05:21:39;7.05;;;4.25;;
46781;SDS011;32541;46.298;11.506;2022-07-24T05:24:04;5.07;;;4.38;;
46781;SDS011;32541;46.298;11.506;2022-07-24T05:26:30;6.28;;;4.50;;
46781;SDS011;32541;46.298;11.506;2022-07-24T05:28:59;4.43;;;3.63;;
46781;SDS011;32541;46.298;11.506;2022-07-24T05:31:26;5.50;;;4.85;;
46781;SDS011;32541;46.298;11.506;2022-07-24T05:33:52;6.97;;;4.60;;
46781;SDS011;32541;46.298;11.506;2022-07-24T05:36:18;4.78;;;4.20;;
46781;SDS011;32541;46.298;11.506;2022-07-24T05:38:43;4.20;;;3.80;;
46781;SDS011;32541;46.298;11.506;2022-07-24T05:41:10;5.25;;;4.40;;
46781;SDS011;32541;46.298;11.506;2022-07-24T05:43:36;4.65;;;3.83;;
46781;SDS011;32541;46.298;11.506;2022-07-24T05:46:01;5.82;;;4.90;;
46781;SDS011;32541;46.298;11.506;2022-07-24T05:48:28;6.60;;;5.63;;
46781;SDS011;32541;46.298;11.506;2022-07-24T05:50:54;6.53;;;5.40;;
46781;SDS011;32541;46.298;11.506;2022-07-24T05:53:20;5.95;;;4.65;;
46781;SDS011;32541;46.298;11.506;2022-07-24T05:55:45;5.68;;;4.30;;
46781;SDS011;32541;46.298;11.506;2022-07-24T05:58:10;6.75;;;4.60;;
46781;SDS011;32541;46.298;11.506;2022-07-24T06:00:36;5.65;;;4.25;;
46781;SDS011;32541;46.298;11.506;2022-07-24T06:03:01;4.10;;;3.63;;
46781;SDS011;32541;46.298;11.506;2022-07-24T06:05:27;4.95;;;3.50;;
46781;SDS011;32541;46.298;11.506;2022-07-24T06:07:52;4.43;;;3.63;;
46781;SDS011;32541;46.298;11.506;2022-07-24T06:10:17;5.55;;;4.60;;
46781;SDS011;32541;46.298;11.506;2022-07-24T06:12:43;5.03;;;4.47;;
46781;SDS011;32541;46.298;11.506;2022-07-24T06:15:08;6.50;;;4.55;;
46781;SDS011;32541;46.298;11.506;2022-07-24T06:17:34;21.25;;;14.07;;
46781;SDS011;32541;46.298;11.506;2022-07-24T06:19:59;18.55;;;13.20;;
46781;SDS011;32541;46.298;11.506;2022-07-24T06:22:25;6.00;;;4.22;;
46781;SDS011;32541;46.298;11.506;2022-07-24T06:24:50;7.22;;;3.60;;
46781;SDS011;32541;46.298;11.506;2022-07-24T06:27:16;7.50;;;4.72;;
46781;SDS011;32541;46.298;11.506;2022-07-24T06:29:41;5.35;;;4.43;;
46781;SDS011;32541;46.298;11.506;2022-07-24T06:32:06;4.20;;;3.80;;
46781;SDS011;32541;46.298;11.506;2022-07-24T06:34:32;4.90;;;4.20;;
46781;SDS011;32541;46.298;11.506;2022-07-24T06:36:57;6.43;;;4.35;;
46781;SDS011;32541;46.298;11.506;2022-07-24T06:39:23;4.88;;;4.20;;
46781;SDS011;32541;46.298;11.506;2022-07-24T06:41:48;5.35;;;3.90;;
46781;SDS011;32541;46.298;11.506;2022-07-24T06:44:14;4.80;;;4.03;;
46781;SDS011;32541;46.298;11.506;2022-07-24T06:46:39;5.07;;;4.22;;
46781;SDS011;32541;46.298;11.506;2022-07-24T06:49:04;7.03;;;4.28;;
46781;SDS011;32541;46.298;11.506;2022-07-24T06:51:30;4.22;;;3.78;;
46781;SDS011;32541;46.298;11.506;2022-07-24T06:53:55;5.93;;;4.30;;
46781;SDS011;32541;46.298;11.506;2022-07-24T06:56:21;14.88;;;10.90;;
46781;SDS011;32541;46.298;11.506;2022-07-24T06:58:46;6.25;;;5.10;;
46781;SDS011;32541;46.298;11.506;2022-07-24T07:01:12;4.28;;;3.58;;
46781;SDS011;32541;46.298;11.506;2022-07-24T07:03:37;4.97;;;3.95;;
46781;SDS011;32541;46.298;11.506;2022-07-24T07:06:03;5.75;;;4.10;;
46781;SDS011;32541;46.298;11.506;2022-07-24T07:08:28;9.57;;;4.30;;
46781;SDS011;32541;46.298;11.506;2022-07-24T07:10:54;4.55;;;3.83;;
46781;SDS011;32541;46.298;11.506;2022-07-24T07:13:19;4.30;;;3.70;;
46781;SDS011;32541;46.298;11.506;2022-07-24T07:15:45;4.97;;;4.47;;
46781;SDS011;32541;46.298;11.506;2022-07-24T07:18:10;5.18;;;4.10;;
46781;SDS011;32541;46.298;11.506;2022-07-24T07:20:35;4.75;;;3.95;;
46781;SDS011;32541;46.298;11.506;2022-07-24T07:23:01;7.25;;;4.55;;
46781;SDS011;32541;46.298;11.506;2022-07-24T07:25:26;5.85;;;4.20;;
46781;SDS011;32541;46.298;11.506;2022-07-24T07:27:51;6.47;;;4.25;;
46781;SDS011;32541;46.298;11.506;2022-07-24T07:30:17;5.20;;;4.47;;
46781;SDS011;32541;46.298;11.506;2022-07-24T07:32:42;17.20;;;12.50;;
46781;SDS011;32541;46.298;11.506;2022-07-24T07:35:08;39.22;;;28.27;;
46781;SDS011;32541;46.298;11.506;2022-07-24T07:37:34;47.13;;;30.13;;
46781;SDS011;32541;46.298;11.506;2022-07-24T07:39:59;16.15;;;12.98;;
46781;SDS011;32541;46.298;11.506;2022-07-24T07:42:25;11.45;;;7.68;;
46781;SDS011;32541;46.298;11.506;2022-07-24T07:44:51;5.50;;;4.43;;
46781;SDS011;32541;46.298;11.506;2022-07-24T07:47:16;4.50;;;3.78;;
46781;SDS011;32541;46.298;11.506;2022-07-24T07:49:42;4.60;;;3.50;;
46781;SDS011;32541;46.298;11.506;2022-07-24T07:52:08;4.18;;;3.67;;
46781;SDS011;32541;46.298;11.506;2022-07-24T07:54:34;4.60;;;3.92;;
46781;SDS011;32541;46.298;11.506;2022-07-24T07:57:00;7.72;;;4.40;;
46781;SDS011;32541;46.298;11.506;2022-07-24T07:59:25;4.55;;;3.80;;
46781;SDS011;32541;46.298;11.506;2022-07-24T08:01:51;4.30;;;3.90;;
46781;SDS011;32541;46.298;11.506;2022-07-24T08:04:16;3.90;;;3.30;;
46781;SDS011;32541;46.298;11.506;2022-07-24T08:06:42;6.10;;;4.03;;
46781;SDS011;32541;46.298;11.506;2022-07-24T08:09:07;10.45;;;5.03;;
46781;SDS011;32541;46.298;11.506;2022-07-24T08:11:33;4.75;;;4.15;;
46781;SDS011;32541;46.298;11.506;2022-07-24T08:13:58;4.20;;;3.60;;
46781;SDS011;32541;46.298;11.506;2022-07-24T08:16:24;4.10;;;3.65;;
46781;SDS011;32541;46.298;11.506;2022-07-24T08:18:49;5.38;;;3.75;;
46781;SDS011;32541;46.298;11.506;2022-07-24T08:21:15;4.03;;;3.47;;
46781;SDS011;32541;46.298;11.506;2022-07-24T08:23:42;4.95;;;3.67;;
46781;SDS011;32541;46.298;11.506;2022-07-24T08:26:08;4.82;;;3.80;;
46781;SDS011;32541;46.298;11.506;2022-07-24T08:28:34;5.90;;;4.32;;
46781;SDS011;32541;46.298;11.506;2022-07-24T08:30:59;6.05;;;4.15;;
46781;SDS011;32541;46.298;11.506;2022-07-24T08:33:24;4.22;;;3.80;;
46781;SDS011;32541;46.298;11.506;2022-07-24T08:35:50;4.60;;;3.65;;
46781;SDS011;32541;46.298;11.506;2022-07-24T08:38:15;4.38;;;3.40;;
46781;SDS011;32541;46.298;11.506;2022-07-24T08:40:41;5.47;;;3.88;;
46781;SDS011;32541;46.298;11.506;2022-07-24T08:43:07;4.05;;;3.45;;
46781;SDS011;32541;46.298;11.506;2022-07-24T08:45:35;4.10;;;3.70;;
46781;SDS011;32541;46.298;11.506;2022-07-24T08:48:02;5.53;;;3.15;;
46781;SDS011;32541;46.298;11.506;2022-07-24T08:50:29;4.05;;;3.30;;
46781;SDS011;32541;46.298;11.506;2022-07-24T08:52:56;6.47;;;3.38;;
46781;SDS011;32541;46.298;11.506;2022-07-24T08:55:23;4.72;;;3.42;;
46781;SDS011;32541;46.298;11.506;2022-07-24T08:57:48;5.82;;;3.83;;
46781;SDS011;32541;46.298;11.506;2022-07-24T09:00:14;4.45;;;3.55;;
46781;SDS011;32541;46.298;11.506;2022-07-24T09:02:39;3.85;;;3.55;;
46781;SDS011;32541;46.298;11.506;2022-07-24T09:05:05;5.32;;;4.00;;
46781;SDS011;32541;46.298;11.506;2022-07-24T09:07:32;4.40;;;4.00;;
46781;SDS011;32541;46.298;11.506;2022-07-24T09:10:07;5.40;;;3.60;;
46781;SDS011;32541;46.298;11.506;2022-07-24T09:12:40;3.85;;;3.45;;
46781;SDS011;32541;46.298;11.506;2022-07-24T09:20:13;4.28;;;3.53;;
46781;SDS011;32541;46.298;11.506;2022-07-24T09:22:39;5.03;;;3.50;;
46781;SDS011;32541;46.298;11.506;2022-07-24T09:27:49;4.05;;;3.20;;
46781;SDS011;32541;46.298;11.506;2022-07-24T09:30:29;4.95;;;3.47;;
46781;SDS011;32541;46.298;11.506;2022-07-24T09:33:18;4.45;;;3.58;;
46781;SDS011;32541;46.298;11.506;2022-07-24T09:35:50;3.78;;;3.38;;
46781;SDS011;32541;46.298;11.506;2022-07-24T09:38:17;4.00;;;3.50;;
46781;SDS011;32541;46.298;11.506;2022-07-24T09:40:55;3.75;;;2.80;;
46781;SDS011;32541;46.298;11.506;2022-07-24T09:43:29;4.35;;;3.17;;
46781;SDS011;32541;46.298;11.506;2022-07-24T09:48:34;3.65;;;3.13;;
46781;SDS011;32541;46.298;11.506;2022-07-24T09:53:31;4.95;;;3.42;;
46781;SDS011;32541;46.298;11.506;2022-07-24T09:56:06;4.07;;;3.40;;
46781;SDS011;32541;46.298;11.506;2022-07-24T10:01:10;4.15;;;3.58;;
46781;SDS011;32541;46.298;11.506;2022-07-24T10:03:37;4.60;;;4.20;;
46781;SDS011;32541;46.298;11.506;2022-07-24T10:06:05;5.70;;;4.35;;
46781;SDS011;32541;46.298;11.506;2022-07-24T10:08:32;4.72;;;4.30;;
46781;SDS011;32541;46.298;11.506;2022-07-24T10:10:59;5.35;;;4.40;;
46781;SDS011;32541;46.298;11.506;2022-07-24T10:13:25;5.85;;;4.70;;
46781;SDS011;32541;46.298;11.506;2022-07-24T10:21:25;8.82;;;7.93;;
46781;SDS011;32541;46.298;11.506;2022-07-24T10:27:02;6.70;;;5.88;;
46781;SDS011;32541;46.298;11.506;2022-07-24T10:29:15;7.00;;;5.47;;
46781;SDS011;32541;46.298;11.506;2022-07-24T10:31:50;6.85;;;5.50;;
46781;SDS011;32541;46.298;11.506;2022-07-24T10:36:51;7.32;;;6.00;;
46781;SDS011;32541;46.298;11.506;2022-07-24T10:39:31;10.38;;;5.95;;
46781;SDS011;32541;46.298;11.506;2022-07-24T10:42:03;7.00;;;6.20;;
46781;SDS011;32541;46.298;11.506;2022-07-24T10:44:30;6.45;;;5.85;;
46781;SDS011;32541;46.298;11.506;2022-07-24T10:52:27;6.53;;;5.88;;
46781;SDS011;32541;46.298;11.506;2022-07-24T11:00:36;7.57;;;6.72;;
46781;SDS011;32541;46.298;11.506;2022-07-24T11:03:03;7.07;;;6.28;;
46781;SDS011;32541;46.298;11.506;2022-07-24T11:05:32;11.55;;;7.25;;
46781;SDS011;32541;46.298;11.506;2022-07-24T11:18:40;11.40;;;7.30;;
46781;SDS011;32541;46.298;11.506;2022-07-24T11:21:06;7.55;;;6.75;;
46781;SDS011;32541;46.298;11.506;2022-07-24T11:23:33;8.48;;;6.60;;
46781;SDS011;32541;46.298;11.506;2022-07-24T11:29:20;8.65;;;6.63;;
46781;SDS011;32541;46.298;11.506;2022-07-24T11:31:49;8.82;;;7.10;;
46781;SDS011;32541;46.298;11.506;2022-07-24T11:34:18;7.57;;;6.50;;
46781;SDS011;32541;46.298;11.506;2022-07-24T11:36:45;6.72;;;6.13;;
46781;SDS011;32541;46.298;11.506;2022-07-24T11:39:19;11.18;;;7.03;;
46781;SDS011;32541;46.298;11.506;2022-07-24T11:41:52;9.15;;;7.05;;
46781;SDS011;32541;46.298;11.506;2022-07-24T11:49:42;7.72;;;6.95;;
46781;SDS011;32541;46.298;11.506;2022-07-24T11:52:25;9.98;;;6.97;;
46781;SDS011;32541;46.298;11.506;2022-07-24T11:54:58;6.57;;;5.97;;
46781;SDS011;32541;46.298;11.506;2022-07-24T11:57:30;7.95;;;6.90;;
46781;SDS011;32541;46.298;11.506;2022-07-24T11:59:58;7.87;;;7.07;;
46781;SDS011;32541;46.298;11.506;2022-07-24T12:02:24;7.80;;;6.40;;
46781;SDS011;32541;46.298;11.506;2022-07-24T12:04:50;8.65;;;6.68;;
46781;SDS011;32541;46.298;11.506;2022-07-24T12:12:22;7.57;;;6.30;;
46781;SDS011;32541;46.298;11.506;2022-07-24T12:14:48;7.75;;;7.05;;
46781;SDS011;32541;46.298;11.506;2022-07-24T12:17:18;10.13;;;6.05;;
46781;SDS011;32541;46.298;11.506;2022-07-24T12:19:50;7.60;;;6.90;;
46781;SDS011;32541;46.298;11.506;2022-07-24T12:22:17;7.90;;;6.40;;
46781;SDS011;32541;46.298;11.506;2022-07-24T12:24:43;7.75;;;6.13;;
46781;SDS011;32541;46.298;11.506;2022-07-24T12:27:08;7.82;;;7.13;;
46781;SDS011;32541;46.298;11.506;2022-07-24T12:29:40;7.40;;;6.43;;
46781;SDS011;32541;46.298;11.506;2022-07-24T12:34:43;7.00;;;6.40;;
46781;SDS011;32541;46.298;11.506;2022-07-24T12:37:16;7.60;;;6.80;;
46781;SDS011;32541;46.298;11.506;2022-07-24T12:39:47;7.28;;;6.25;;
46781;SDS011;32541;46.298;11.506;2022-07-24T12:42:14;8.05;;;7.20;;
46781;SDS011;32541;46.298;11.506;2022-07-24T12:44:41;7.07;;;6.47;;
46781;SDS011;32541;46.298;11.506;2022-07-24T12:47:08;8.07;;;6.88;;
46781;SDS011;32541;46.298;11.506;2022-07-24T12:49:41;8.23;;;6.88;;
46781;SDS011;32541;46.298;11.506;2022-07-24T12:52:18;7.80;;;7.00;;
46781;SDS011;32541;46.298;11.506;2022-07-24T12:54:50;7.28;;;6.35;;
46781;SDS011;32541;46.298;11.506;2022-07-24T12:57:19;9.13;;;6.57;;
46781;SDS011;32541;46.298;11.506;2022-07-24T12:59:47;9.88;;;7.35;;
46781;SDS011;32541;46.298;11.506;2022-07-24T13:02:21;7.10;;;6.40;;
46781;SDS011;32541;46.298;11.506;2022-07-24T13:04:53;10.15;;;7.13;;
46781;SDS011;32541;46.298;11.506;2022-07-24T13:07:22;9.05;;;7.10;;
46781;SDS011;32541;46.298;11.506;2022-07-24T13:09:49;9.27;;;7.30;;
46781;SDS011;32541;46.298;11.506;2022-07-24T13:12:16;9.80;;;6.97;;
46781;SDS011;32541;46.298;11.506;2022-07-24T13:14:42;7.50;;;6.75;;
46781;SDS011;32541;46.298;11.506;2022-07-24T13:17:09;9.07;;;7.30;;
46781;SDS011;32541;46.298;11.506;2022-07-24T13:19:39;8.63;;;7.35;;
46781;SDS011;32541;46.298;11.506;2022-07-24T13:22:05;8.02;;;6.95;;
46781;SDS011;32541;46.298;11.506;2022-07-24T13:24:31;8.07;;;7.28;;
46781;SDS011;32541;46.298;11.506;2022-07-24T13:27:02;7.22;;;6.53;;
46781;SDS011;32541;46.298;11.506;2022-07-24T13:29:28;7.72;;;6.93;;
46781;SDS011;32541;46.298;11.506;2022-07-24T13:31:54;10.88;;;6.72;;
46781;SDS011;32541;46.298;11.506;2022-07-24T13:34:20;9.10;;;7.60;;
46781;SDS011;32541;46.298;11.506;2022-07-24T13:36:45;7.45;;;6.75;;
46781;SDS011;32541;46.298;11.506;2022-07-24T13:39:11;8.88;;;6.88;;
46781;SDS011;32541;46.298;11.506;2022-07-24T13:41:38;7.72;;;6.93;;
46781;SDS011;32541;46.298;11.506;2022-07-24T13:44:04;7.57;;;6.70;;
46781;SDS011;32541;46.298;11.506;2022-07-24T13:46:30;6.65;;;6.05;;
46781;SDS011;32541;46.298;11.506;2022-07-24T13:48:58;7.25;;;6.40;;
46781;SDS011;32541;46.298;11.506;2022-07-24T13:51:28;7.53;;;6.75;;
46781;SDS011;32541;46.298;11.506;2022-07-24T13:53:54;6.97;;;6.38;;
46781;SDS011;32541;46.298;11.506;2022-07-24T13:56:19;7.63;;;6.90;;
46781;SDS011;32541;46.298;11.506;2022-07-24T13:58:47;7.18;;;6.18;;
46781;SDS011;32541;46.298;11.506;2022-07-24T14:01:12;8.10;;;6.50;;
46781;SDS011;32541;46.298;11.506;2022-07-24T14:03:38;7.60;;;6.47;;
46781;SDS011;32541;46.298;11.506;2022-07-24T14:06:07;7.10;;;6.32;;
46781;SDS011;32541;46.298;11.506;2022-07-24T14:08:33;7.78;;;6.97;;
46781;SDS011;32541;46.298;11.506;2022-07-24T14:10:59;7.93;;;7.22;;
46781;SDS011;32541;46.298;11.506;2022-07-24T14:13:24;7.80;;;7.03;;
46781;SDS011;32541;46.298;11.506;2022-07-24T14:15:50;7.38;;;6.70;;
46781;SDS011;32541;46.298;11.506;2022-07-24T14:18:15;7.80;;;7.03;;
46781;SDS011;32541;46.298;11.506;2022-07-24T14:20:41;7.85;;;6.50;;
46781;SDS011;32541;46.298;11.506;2022-07-24T14:23:07;7.82;;;6.97;;
46781;SDS011;32541;46.298;11.506;2022-07-24T14:25:32;8.05;;;6.85;;
46781;SDS011;32541;46.298;11.506;2022-07-24T14:27:57;8.55;;;6.75;;
46781;SDS011;32541;46.298;11.506;2022-07-24T14:30:23;8.10;;;6.88;;
46781;SDS011;32541;46.298;11.506;2022-07-24T14:32:49;18.15;;;7.60;;
46781;SDS011;32541;46.298;11.506;2022-07-24T14:35:14;7.97;;;7.13;;
46781;SDS011;32541;46.298;11.506;2022-07-24T14:37:40;7.95;;;7.15;;
46781;SDS011;32541;46.298;11.506;2022-07-24T14:40:06;7.70;;;6.90;;
46781;SDS011;32541;46.298;11.506;2022-07-24T14:42:33;10.10;;;6.95;;
46781;SDS011;32541;46.298;11.506;2022-07-24T14:44:58;7.45;;;6.60;;
46781;SDS011;32541;46.298;11.506;2022-07-24T14:47:24;9.50;;;6.85;;
46781;SDS011;32541;46.298;11.506;2022-07-24T14:49:50;7.47;;;6.78;;
46781;SDS011;32541;46.298;11.506;2022-07-24T14:52:15;9.23;;;7.00;;
46781;SDS011;32541;46.298;11.506;2022-07-24T14:54:45;7.82;;;6.95;;
46781;SDS011;32541;46.298;11.506;2022-07-24T14:57:11;7.88;;;6.80;;
46781;SDS011;32541;46.298;11.506;2022-07-24T14:59:37;7.32;;;6.63;;
46781;SDS011;32541;46.298;11.506;2022-07-24T15:02:06;8.05;;;7.25;;
46781;SDS011;32541;46.298;11.506;2022-07-24T15:04:33;7.60;;;6.75;;
46781;SDS011;32541;46.298;11.506;2022-07-24T15:06:59;8.70;;;7.05;;
46781;SDS011;32541;46.298;11.506;2022-07-24T15:09:24;7.55;;;6.38;;
46781;SDS011;32541;46.298;11.506;2022-07-24T15:11:50;7.13;;;6.47;;
46781;SDS011;32541;46.298;11.506;2022-07-24T15:14:15;7.90;;;7.10;;
46781;SDS011;32541;46.298;11.506;2022-07-24T15:16:40;8.18;;;6.65;;
46781;SDS011;32541;46.298;11.506;2022-07-24T15:19:06;7.75;;;6.88;;
46781;SDS011;32541;46.298;11.506;2022-07-24T15:21:31;9.00;;;6.38;;
46781;SDS011;32541;46.298;11.506;2022-07-24T15:23:57;7.70;;;6.85;;
46781;SDS011;32541;46.298;11.506;2022-07-24T15:26:22;6.88;;;6.18;;
46781;SDS011;32541;46.298;11.506;2022-07-24T15:28:48;9.75;;;7.13;;
46781;SDS011;32541;46.298;11.506;2022-07-24T15:31:13;7.15;;;6.47;;
46781;SDS011;32541;46.298;11.506;2022-07-24T15:33:42;8.48;;;7.00;;